sensor_id;sensor_type;location;lat;lon;timestamp;P1;durP1;ratioP1;P2;durP2;ratioP2
32108;SDS011;18624;50.042;8.436;2023-02-15T00:00:00;45.58;;;25.90;;
32108;SDS011;18624;50.042;8.436;2023-02-15T00:02:30;45.88;;;25.25;;
32108;SDS011;18624;50.042;8.436;2023-02-15T00:04:57;48.53;;;25.80;;
32108;SDS011;18624;50.042;8.436;2023-02-15T00:07:23;45.75;;;25.85;;
32108;SDS011;18624;50.042;8.436;2023-02-15T00:09:49;45.17;;;24.77;;
32108;SDS011;18624;50.042;8.436;2023-02-15T00:12:16;50.28;;;26.50;;
32108;SDS011;18624;50.042;8.436;2023-02-15T00:14:43;51.15;;;27.65;;
32108;SDS011;18624;50.042;8.436;2023-02-15T00:17:09;45.47;;;26.15;;
32108;SDS011;18624;50.042;8.436;2023-02-15T00:19:36;47.72;;;25.70;;
32108;SDS011;18624;50.042;8.436;2023-02-15T00:22:02;48.83;;;26.52;;
32108;SDS011;18624;50.042;8.436;2023-02-15T00:24:29;44.50;;;27.15;;
32108;SDS011;18624;50.042;8.436;2023-02-15T00:26:55;51.13;;;26.60;;
32108;SDS011;18624;50.042;8.436;2023-02-15T00:29:22;51.03;;;26.67;;
32108;SDS011;18624;50.042;8.436;2023-02-15T00:31:48;47.92;;;27.00;;
32108;SDS011;18624;50.042;8.436;2023-02-15T00:34:17;60.03;;;29.42;;
32108;SDS011;18624;50.042;8.436;2023-02-15T00:36:47;46.88;;;26.17;;
32108;SDS011;18624;50.042;8.436;2023-02-15T00:39:14;48.72;;;26.13;;
32108;SDS011;18624;50.042;8.436;2023-02-15T00:41:42;52.58;;;29.58;;
32108;SDS011;18624;50.042;8.436;2023-02-15T00:44:10;53.00;;;28.38;;
32108;SDS011;18624;50.042;8.436;2023-02-15T00:46:36;53.58;;;28.92;;
32108;SDS011;18624;50.042;8.436;2023-02-15T00:49:03;59.65;;;29.60;;
32108;SDS011;18624;50.042;8.436;2023-02-15T00:51:31;49.83;;;26.38;;
32108;SDS011;18624;50.042;8.436;2023-02-15T00:53:58;55.60;;;28.25;;
32108;SDS011;18624;50.042;8.436;2023-02-15T00:56:24;50.10;;;28.08;;
32108;SDS011;18624;50.042;8.436;2023-02-15T00:58:50;58.75;;;29.67;;
32108;SDS011;18624;50.042;8.436;2023-02-15T01:01:18;57.10;;;26.65;;
32108;SDS011;18624;50.042;8.436;2023-02-15T01:03:45;52.38;;;27.30;;
32108;SDS011;18624;50.042;8.436;2023-02-15T01:06:13;52.10;;;28.60;;
32108;SDS011;18624;50.042;8.436;2023-02-15T01:08:41;52.50;;;29.23;;
32108;SDS011;18624;50.042;8.436;2023-02-15T01:11:10;50.10;;;26.23;;
32108;SDS011;18624;50.042;8.436;2023-02-15T01:13:40;56.63;;;29.10;;
32108;SDS011;18624;50.042;8.436;2023-02-15T01:16:07;54.20;;;27.35;;
32108;SDS011;18624;50.042;8.436;2023-02-15T01:18:34;49.63;;;26.15;;
32108;SDS011;18624;50.042;8.436;2023-02-15T01:21:08;52.63;;;26.65;;
32108;SDS011;18624;50.042;8.436;2023-02-15T01:23:45;48.90;;;26.95;;
32108;SDS011;18624;50.042;8.436;2023-02-15T01:26:12;52.60;;;27.60;;
32108;SDS011;18624;50.042;8.436;2023-02-15T01:28:42;54.90;;;27.98;;
32108;SDS011;18624;50.042;8.436;2023-02-15T01:31:09;52.13;;;28.67;;
32108;SDS011;18624;50.042;8.436;2023-02-15T01:33:38;56.30;;;29.33;;
32108;SDS011;18624;50.042;8.436;2023-02-15T01:36:05;49.55;;;27.50;;
32108;SDS011;18624;50.042;8.436;2023-02-15T01:38:32;55.47;;;27.90;;
32108;SDS011;18624;50.042;8.436;2023-02-15T01:41:00;44.92;;;25.58;;
32108;SDS011;18624;50.042;8.436;2023-02-15T01:43:46;48.25;;;26.35;;
32108;SDS011;18624;50.042;8.436;2023-02-15T01:46:42;52.42;;;28.30;;
32108;SDS011;18624;50.042;8.436;2023-02-15T01:49:16;47.90;;;25.63;;
32108;SDS011;18624;50.042;8.436;2023-02-15T01:51:45;47.17;;;24.33;;
32108;SDS011;18624;50.042;8.436;2023-02-15T01:56:47;51.35;;;27.30;;
32108;SDS011;18624;50.042;8.436;2023-02-15T01:59:16;50.63;;;25.40;;
32108;SDS011;18624;50.042;8.436;2023-02-15T02:01:48;46.70;;;25.00;;
32108;SDS011;18624;50.042;8.436;2023-02-15T02:06:46;44.83;;;26.48;;
32108;SDS011;18624;50.042;8.436;2023-02-15T02:09:15;51.63;;;26.58;;
32108;SDS011;18624;50.042;8.436;2023-02-15T02:11:41;47.17;;;27.25;;
32108;SDS011;18624;50.042;8.436;2023-02-15T02:14:11;47.65;;;25.20;;
32108;SDS011;18624;50.042;8.436;2023-02-15T02:19:54;48.75;;;27.77;;
32108;SDS011;18624;50.042;8.436;2023-02-15T02:25:38;46.67;;;25.58;;
32108;SDS011;18624;50.042;8.436;2023-02-15T02:28:25;47.67;;;27.08;;
32108;SDS011;18624;50.042;8.436;2023-02-15T02:34:05;38.40;;;24.95;;
32108;SDS011;18624;50.042;8.436;2023-02-15T02:39:37;42.53;;;22.42;;
32108;SDS011;18624;50.042;8.436;2023-02-15T02:42:34;45.25;;;24.35;;
32108;SDS011;18624;50.042;8.436;2023-02-15T02:45:05;46.60;;;26.58;;
32108;SDS011;18624;50.042;8.436;2023-02-15T02:50:09;42.65;;;21.92;;
32108;SDS011;18624;50.042;8.436;2023-02-15T02:55:11;49.00;;;24.90;;
32108;SDS011;18624;50.042;8.436;2023-02-15T03:01:02;39.22;;;23.15;;
32108;SDS011;18624;50.042;8.436;2023-02-15T03:06:37;43.90;;;25.38;;
32108;SDS011;18624;50.042;8.436;2023-02-15T03:09:15;45.88;;;24.20;;
32108;SDS011;18624;50.042;8.436;2023-02-15T03:12:12;42.03;;;25.83;;
32108;SDS011;18624;50.042;8.436;2023-02-15T03:14:45;40.10;;;23.55;;
32108;SDS011;18624;50.042;8.436;2023-02-15T03:17:16;39.60;;;22.73;;
32108;SDS011;18624;50.042;8.436;2023-02-15T03:19:45;43.22;;;24.58;;
32108;SDS011;18624;50.042;8.436;2023-02-15T03:24:51;44.17;;;24.40;;
32108;SDS011;18624;50.042;8.436;2023-02-15T03:27:24;37.45;;;21.52;;
32108;SDS011;18624;50.042;8.436;2023-02-15T03:29:55;39.85;;;23.10;;
32108;SDS011;18624;50.042;8.436;2023-02-15T03:32:24;39.17;;;22.27;;
32108;SDS011;18624;50.042;8.436;2023-02-15T03:34:53;39.88;;;22.83;;
32108;SDS011;18624;50.042;8.436;2023-02-15T03:39:59;40.83;;;23.55;;
32108;SDS011;18624;50.042;8.436;2023-02-15T03:42:49;38.75;;;23.20;;
32108;SDS011;18624;50.042;8.436;2023-02-15T03:45:25;42.78;;;24.67;;
32108;SDS011;18624;50.042;8.436;2023-02-15T03:47:54;48.25;;;25.30;;
32108;SDS011;18624;50.042;8.436;2023-02-15T03:50:24;41.42;;;23.77;;
32108;SDS011;18624;50.042;8.436;2023-02-15T03:53:14;44.75;;;24.25;;
32108;SDS011;18624;50.042;8.436;2023-02-15T03:55:47;41.65;;;24.27;;
32108;SDS011;18624;50.042;8.436;2023-02-15T03:58:15;48.03;;;28.00;;
32108;SDS011;18624;50.042;8.436;2023-02-15T04:01:03;47.28;;;26.33;;
32108;SDS011;18624;50.042;8.436;2023-02-15T04:03:56;47.70;;;25.23;;
32108;SDS011;18624;50.042;8.436;2023-02-15T04:06:27;46.58;;;24.42;;
32108;SDS011;18624;50.042;8.436;2023-02-15T04:08:53;45.17;;;26.52;;
32108;SDS011;18624;50.042;8.436;2023-02-15T04:11:38;44.50;;;25.23;;
32108;SDS011;18624;50.042;8.436;2023-02-15T04:14:05;52.33;;;27.17;;
32108;SDS011;18624;50.042;8.436;2023-02-15T04:16:50;49.03;;;26.05;;
32108;SDS011;18624;50.042;8.436;2023-02-15T04:19:16;44.22;;;25.13;;
32108;SDS011;18624;50.042;8.436;2023-02-15T04:22:01;47.08;;;25.77;;
32108;SDS011;18624;50.042;8.436;2023-02-15T04:24:46;49.22;;;26.27;;
32108;SDS011;18624;50.042;8.436;2023-02-15T04:27:31;47.13;;;24.38;;
32108;SDS011;18624;50.042;8.436;2023-02-15T04:29:57;46.72;;;25.38;;
32108;SDS011;18624;50.042;8.436;2023-02-15T04:32:24;47.10;;;24.42;;
32108;SDS011;18624;50.042;8.436;2023-02-15T04:34:50;53.30;;;27.70;;
32108;SDS011;18624;50.042;8.436;2023-02-15T04:37:16;49.40;;;25.40;;
32108;SDS011;18624;50.042;8.436;2023-02-15T04:39:43;51.10;;;24.80;;
32108;SDS011;18624;50.042;8.436;2023-02-15T04:42:09;43.22;;;25.13;;
32108;SDS011;18624;50.042;8.436;2023-02-15T04:44:35;52.35;;;26.30;;
32108;SDS011;18624;50.042;8.436;2023-02-15T04:47:02;42.10;;;24.48;;
32108;SDS011;18624;50.042;8.436;2023-02-15T04:49:28;47.75;;;26.58;;
32108;SDS011;18624;50.042;8.436;2023-02-15T04:51:55;52.70;;;28.63;;
32108;SDS011;18624;50.042;8.436;2023-02-15T04:54:21;47.42;;;25.27;;
32108;SDS011;18624;50.042;8.436;2023-02-15T04:56:48;44.78;;;25.88;;
32108;SDS011;18624;50.042;8.436;2023-02-15T04:59:14;47.58;;;26.67;;
32108;SDS011;18624;50.042;8.436;2023-02-15T05:01:41;51.45;;;28.90;;
32108;SDS011;18624;50.042;8.436;2023-02-15T05:04:08;50.17;;;27.38;;
32108;SDS011;18624;50.042;8.436;2023-02-15T05:06:35;46.38;;;27.75;;
32108;SDS011;18624;50.042;8.436;2023-02-15T05:09:01;46.92;;;25.50;;
32108;SDS011;18624;50.042;8.436;2023-02-15T05:11:28;43.63;;;25.52;;
32108;SDS011;18624;50.042;8.436;2023-02-15T05:13:54;47.28;;;25.58;;
32108;SDS011;18624;50.042;8.436;2023-02-15T05:16:21;49.90;;;26.35;;
32108;SDS011;18624;50.042;8.436;2023-02-15T05:18:47;47.38;;;26.00;;
32108;SDS011;18624;50.042;8.436;2023-02-15T05:21:14;50.33;;;25.02;;
32108;SDS011;18624;50.042;8.436;2023-02-15T05:23:42;48.22;;;26.83;;
32108;SDS011;18624;50.042;8.436;2023-02-15T05:26:10;48.95;;;26.15;;
32108;SDS011;18624;50.042;8.436;2023-02-15T05:28:56;48.90;;;26.48;;
32108;SDS011;18624;50.042;8.436;2023-02-15T05:31:23;47.33;;;25.63;;
32108;SDS011;18624;50.042;8.436;2023-02-15T05:33:51;46.80;;;25.15;;
32108;SDS011;18624;50.042;8.436;2023-02-15T05:36:17;50.38;;;26.85;;
32108;SDS011;18624;50.042;8.436;2023-02-15T05:38:43;48.17;;;25.38;;
32108;SDS011;18624;50.042;8.436;2023-02-15T05:41:10;47.22;;;25.30;;
32108;SDS011;18624;50.042;8.436;2023-02-15T05:43:37;46.53;;;25.65;;
32108;SDS011;18624;50.042;8.436;2023-02-15T05:46:04;43.72;;;24.25;;
32108;SDS011;18624;50.042;8.436;2023-02-15T05:48:31;43.67;;;22.10;;
32108;SDS011;18624;50.042;8.436;2023-02-15T05:50:59;43.25;;;22.73;;
32108;SDS011;18624;50.042;8.436;2023-02-15T05:53:34;48.42;;;22.23;;
32108;SDS011;18624;50.042;8.436;2023-02-15T05:56:03;47.25;;;25.10;;
32108;SDS011;18624;50.042;8.436;2023-02-15T05:58:32;46.95;;;22.35;;
32108;SDS011;18624;50.042;8.436;2023-02-15T06:01:07;42.60;;;23.65;;
32108;SDS011;18624;50.042;8.436;2023-02-15T06:03:41;48.85;;;24.35;;
32108;SDS011;18624;50.042;8.436;2023-02-15T06:06:08;42.78;;;24.02;;
32108;SDS011;18624;50.042;8.436;2023-02-15T06:08:35;47.85;;;24.63;;
32108;SDS011;18624;50.042;8.436;2023-02-15T06:11:02;43.63;;;24.73;;
32108;SDS011;18624;50.042;8.436;2023-02-15T06:13:30;44.00;;;22.60;;
32108;SDS011;18624;50.042;8.436;2023-02-15T06:15:56;43.80;;;23.15;;
32108;SDS011;18624;50.042;8.436;2023-02-15T06:18:23;43.28;;;24.48;;
32108;SDS011;18624;50.042;8.436;2023-02-15T06:20:49;47.58;;;22.80;;
32108;SDS011;18624;50.042;8.436;2023-02-15T06:23:16;40.35;;;22.95;;
32108;SDS011;18624;50.042;8.436;2023-02-15T06:25:43;32.47;;;19.85;;
32108;SDS011;18624;50.042;8.436;2023-02-15T06:28:12;34.97;;;20.48;;
32108;SDS011;18624;50.042;8.436;2023-02-15T06:30:39;37.33;;;21.15;;
32108;SDS011;18624;50.042;8.436;2023-02-15T06:33:05;33.75;;;19.67;;
32108;SDS011;18624;50.042;8.436;2023-02-15T06:35:32;37.63;;;20.63;;
32108;SDS011;18624;50.042;8.436;2023-02-15T06:37:58;35.25;;;21.40;;
32108;SDS011;18624;50.042;8.436;2023-02-15T06:40:25;32.60;;;19.67;;
32108;SDS011;18624;50.042;8.436;2023-02-15T06:42:51;42.97;;;21.17;;
32108;SDS011;18624;50.042;8.436;2023-02-15T06:45:17;38.33;;;22.63;;
32108;SDS011;18624;50.042;8.436;2023-02-15T06:47:44;42.22;;;23.42;;
32108;SDS011;18624;50.042;8.436;2023-02-15T06:50:10;34.13;;;19.42;;
32108;SDS011;18624;50.042;8.436;2023-02-15T06:52:37;40.00;;;22.35;;
32108;SDS011;18624;50.042;8.436;2023-02-15T06:55:04;38.97;;;22.27;;
32108;SDS011;18624;50.042;8.436;2023-02-15T06:57:31;39.88;;;23.80;;
32108;SDS011;18624;50.042;8.436;2023-02-15T06:59:58;38.78;;;21.00;;
32108;SDS011;18624;50.042;8.436;2023-02-15T07:02:25;38.42;;;21.63;;
32108;SDS011;18624;50.042;8.436;2023-02-15T07:04:51;38.90;;;21.70;;
32108;SDS011;18624;50.042;8.436;2023-02-15T07:07:18;34.38;;;20.38;;
32108;SDS011;18624;50.042;8.436;2023-02-15T07:09:44;47.00;;;21.83;;
32108;SDS011;18624;50.042;8.436;2023-02-15T07:12:11;38.10;;;20.98;;
32108;SDS011;18624;50.042;8.436;2023-02-15T07:14:56;36.28;;;20.58;;
32108;SDS011;18624;50.042;8.436;2023-02-15T07:17:24;36.08;;;20.17;;
32108;SDS011;18624;50.042;8.436;2023-02-15T07:20:06;30.98;;;18.92;;
32108;SDS011;18624;50.042;8.436;2023-02-15T07:22:35;33.13;;;18.80;;
32108;SDS011;18624;50.042;8.436;2023-02-15T07:25:03;30.65;;;18.40;;
32108;SDS011;18624;50.042;8.436;2023-02-15T07:27:31;31.08;;;18.02;;
32108;SDS011;18624;50.042;8.436;2023-02-15T07:29:58;29.08;;;17.98;;
32108;SDS011;18624;50.042;8.436;2023-02-15T07:32:27;28.80;;;19.50;;
32108;SDS011;18624;50.042;8.436;2023-02-15T07:34:55;27.17;;;15.77;;
32108;SDS011;18624;50.042;8.436;2023-02-15T07:37:21;27.02;;;16.15;;
32108;SDS011;18624;50.042;8.436;2023-02-15T07:39:48;26.63;;;16.92;;
32108;SDS011;18624;50.042;8.436;2023-02-15T07:42:14;22.35;;;13.82;;
32108;SDS011;18624;50.042;8.436;2023-02-15T07:44:41;27.27;;;15.00;;
32108;SDS011;18624;50.042;8.436;2023-02-15T07:47:07;27.83;;;16.30;;
32108;SDS011;18624;50.042;8.436;2023-02-15T07:49:34;27.35;;;15.80;;
32108;SDS011;18624;50.042;8.436;2023-02-15T07:52:00;26.27;;;17.45;;
32108;SDS011;18624;50.042;8.436;2023-02-15T07:54:27;25.60;;;16.38;;
32108;SDS011;18624;50.042;8.436;2023-02-15T07:56:54;28.38;;;16.83;;
32108;SDS011;18624;50.042;8.436;2023-02-15T07:59:20;29.20;;;18.00;;
32108;SDS011;18624;50.042;8.436;2023-02-15T08:01:47;25.42;;;15.65;;
32108;SDS011;18624;50.042;8.436;2023-02-15T08:04:13;31.23;;;18.50;;
32108;SDS011;18624;50.042;8.436;2023-02-15T08:06:40;25.00;;;15.57;;
32108;SDS011;18624;50.042;8.436;2023-02-15T08:09:07;27.48;;;15.98;;
32108;SDS011;18624;50.042;8.436;2023-02-15T08:11:35;23.73;;;14.20;;
32108;SDS011;18624;50.042;8.436;2023-02-15T08:21:38;27.95;;;16.60;;
32108;SDS011;18624;50.042;8.436;2023-02-15T08:24:06;28.90;;;15.23;;
32108;SDS011;18624;50.042;8.436;2023-02-15T08:26:35;25.80;;;15.15;;
32108;SDS011;18624;50.042;8.436;2023-02-15T08:29:03;25.65;;;14.95;;
32108;SDS011;18624;50.042;8.436;2023-02-15T08:31:29;26.00;;;14.82;;
32108;SDS011;18624;50.042;8.436;2023-02-15T08:33:56;22.13;;;13.60;;
32108;SDS011;18624;50.042;8.436;2023-02-15T08:36:25;25.60;;;16.77;;
32108;SDS011;18624;50.042;8.436;2023-02-15T08:38:53;25.85;;;15.30;;
32108;SDS011;18624;50.042;8.436;2023-02-15T08:41:21;25.63;;;13.68;;
32108;SDS011;18624;50.042;8.436;2023-02-15T08:43:51;28.52;;;16.08;;
32108;SDS011;18624;50.042;8.436;2023-02-15T08:46:23;27.70;;;17.02;;
32108;SDS011;18624;50.042;8.436;2023-02-15T08:48:51;24.38;;;14.35;;
32108;SDS011;18624;50.042;8.436;2023-02-15T08:51:19;23.77;;;14.68;;
32108;SDS011;18624;50.042;8.436;2023-02-15T08:53:54;29.13;;;16.33;;
32108;SDS011;18624;50.042;8.436;2023-02-15T08:56:26;24.33;;;14.20;;
32108;SDS011;18624;50.042;8.436;2023-02-15T08:58:54;21.63;;;12.73;;
32108;SDS011;18624;50.042;8.436;2023-02-15T09:01:22;31.63;;;15.32;;
32108;SDS011;18624;50.042;8.436;2023-02-15T09:03:57;28.65;;;16.50;;
32108;SDS011;18624;50.042;8.436;2023-02-15T09:06:26;29.30;;;16.73;;
32108;SDS011;18624;50.042;8.436;2023-02-15T09:08:54;25.77;;;15.98;;
32108;SDS011;18624;50.042;8.436;2023-02-15T09:11:22;30.88;;;16.63;;
32108;SDS011;18624;50.042;8.436;2023-02-15T09:13:50;26.75;;;15.70;;
32108;SDS011;18624;50.042;8.436;2023-02-15T09:16:19;31.58;;;15.82;;
32108;SDS011;18624;50.042;8.436;2023-02-15T09:18:47;27.80;;;15.88;;
32108;SDS011;18624;50.042;8.436;2023-02-15T09:21:15;27.42;;;16.33;;
32108;SDS011;18624;50.042;8.436;2023-02-15T09:23:44;26.60;;;16.48;;
32108;SDS011;18624;50.042;8.436;2023-02-15T09:26:15;26.38;;;15.05;;
32108;SDS011;18624;50.042;8.436;2023-02-15T09:28:44;27.80;;;16.33;;
32108;SDS011;18624;50.042;8.436;2023-02-15T09:31:12;27.70;;;16.52;;
32108;SDS011;18624;50.042;8.436;2023-02-15T09:33:41;27.35;;;15.82;;
32108;SDS011;18624;50.042;8.436;2023-02-15T09:36:16;26.40;;;16.08;;
32108;SDS011;18624;50.042;8.436;2023-02-15T09:38:45;32.10;;;16.38;;
32108;SDS011;18624;50.042;8.436;2023-02-15T09:52:17;31.05;;;19.45;;
32108;SDS011;18624;50.042;8.436;2023-02-15T10:11:41;35.50;;;18.20;;
32108;SDS011;18624;50.042;8.436;2023-02-15T10:14:25;28.88;;;17.05;;
32108;SDS011;18624;50.042;8.436;2023-02-15T10:28:53;34.90;;;18.42;;
32108;SDS011;18624;50.042;8.436;2023-02-15T10:31:27;30.77;;;19.80;;
32108;SDS011;18624;50.042;8.436;2023-02-15T10:39:25;31.00;;;18.63;;
32108;SDS011;18624;50.042;8.436;2023-02-15T10:44:44;28.92;;;17.55;;
32108;SDS011;18624;50.042;8.436;2023-02-15T10:58:36;30.75;;;18.95;;
32108;SDS011;18624;50.042;8.436;2023-02-15T11:07:04;35.97;;;18.95;;
32108;SDS011;18624;50.042;8.436;2023-02-15T11:09:44;37.65;;;21.42;;
32108;SDS011;18624;50.042;8.436;2023-02-15T11:12:20;35.88;;;20.55;;
32108;SDS011;18624;50.042;8.436;2023-02-15T11:17:41;35.53;;;22.20;;
32108;SDS011;18624;50.042;8.436;2023-02-15T11:20:19;37.42;;;22.77;;
32108;SDS011;18624;50.042;8.436;2023-02-15T11:22:51;42.55;;;22.17;;
32108;SDS011;18624;50.042;8.436;2023-02-15T11:25:28;41.58;;;23.23;;
32108;SDS011;18624;50.042;8.436;2023-02-15T11:27:58;40.70;;;22.95;;
32108;SDS011;18624;50.042;8.436;2023-02-15T11:30:38;44.60;;;24.23;;
32108;SDS011;18624;50.042;8.436;2023-02-15T11:33:15;40.78;;;23.88;;
32108;SDS011;18624;50.042;8.436;2023-02-15T11:35:49;39.65;;;21.63;;
32108;SDS011;18624;50.042;8.436;2023-02-15T11:38:24;34.08;;;20.27;;
32108;SDS011;18624;50.042;8.436;2023-02-15T11:40:55;41.17;;;23.77;;
32108;SDS011;18624;50.042;8.436;2023-02-15T11:43:30;42.25;;;23.67;;
32108;SDS011;18624;50.042;8.436;2023-02-15T11:46:00;32.33;;;17.90;;
32108;SDS011;18624;50.042;8.436;2023-02-15T11:48:26;47.10;;;24.52;;
32108;SDS011;18624;50.042;8.436;2023-02-15T11:50:57;40.67;;;24.60;;
32108;SDS011;18624;50.042;8.436;2023-02-15T11:53:24;48.40;;;25.83;;
32108;SDS011;18624;50.042;8.436;2023-02-15T11:55:55;43.70;;;26.23;;
32108;SDS011;18624;50.042;8.436;2023-02-15T12:01:23;44.78;;;24.23;;
32108;SDS011;18624;50.042;8.436;2023-02-15T12:03:54;47.88;;;23.40;;
32108;SDS011;18624;50.042;8.436;2023-02-15T12:11:36;46.53;;;26.15;;
32108;SDS011;18624;50.042;8.436;2023-02-15T12:14:05;39.33;;;20.75;;
32108;SDS011;18624;50.042;8.436;2023-02-15T12:16:40;47.33;;;23.13;;
32108;SDS011;18624;50.042;8.436;2023-02-15T12:19:27;42.78;;;23.50;;
32108;SDS011;18624;50.042;8.436;2023-02-15T12:22:03;41.40;;;25.60;;
32108;SDS011;18624;50.042;8.436;2023-02-15T12:24:54;42.97;;;22.33;;
32108;SDS011;18624;50.042;8.436;2023-02-15T12:27:22;41.80;;;22.92;;
32108;SDS011;18624;50.042;8.436;2023-02-15T12:29:53;45.33;;;22.98;;
32108;SDS011;18624;50.042;8.436;2023-02-15T12:32:25;37.08;;;22.38;;
32108;SDS011;18624;50.042;8.436;2023-02-15T12:35:41;39.33;;;22.98;;
32108;SDS011;18624;50.042;8.436;2023-02-15T12:37:52;40.45;;;21.27;;
32108;SDS011;18624;50.042;8.436;2023-02-15T12:40:22;38.83;;;23.50;;
32108;SDS011;18624;50.042;8.436;2023-02-15T12:42:52;38.03;;;21.83;;
32108;SDS011;18624;50.042;8.436;2023-02-15T12:45:26;42.22;;;23.05;;
32108;SDS011;18624;50.042;8.436;2023-02-15T12:50:45;36.75;;;21.90;;
32108;SDS011;18624;50.042;8.436;2023-02-15T12:53:33;38.97;;;22.52;;
32108;SDS011;18624;50.042;8.436;2023-02-15T12:56:03;40.40;;;24.17;;
32108;SDS011;18624;50.042;8.436;2023-02-15T12:58:35;43.95;;;25.13;;
32108;SDS011;18624;50.042;8.436;2023-02-15T13:03:52;42.42;;;25.83;;
32108;SDS011;18624;50.042;8.436;2023-02-15T13:06:19;45.07;;;26.23;;
32108;SDS011;18624;50.042;8.436;2023-02-15T13:08:50;44.60;;;25.08;;
32108;SDS011;18624;50.042;8.436;2023-02-15T13:11:24;46.53;;;25.90;;
32108;SDS011;18624;50.042;8.436;2023-02-15T13:13:57;47.30;;;26.27;;
32108;SDS011;18624;50.042;8.436;2023-02-15T13:16:30;53.55;;;29.05;;
32108;SDS011;18624;50.042;8.436;2023-02-15T13:18:58;46.90;;;26.98;;
32108;SDS011;18624;50.042;8.436;2023-02-15T13:21:33;49.67;;;25.70;;
32108;SDS011;18624;50.042;8.436;2023-02-15T13:24:15;47.33;;;28.45;;
32108;SDS011;18624;50.042;8.436;2023-02-15T13:26:48;52.28;;;25.80;;
32108;SDS011;18624;50.042;8.436;2023-02-15T13:29:17;52.83;;;27.38;;
32108;SDS011;18624;50.042;8.436;2023-02-15T13:31:49;44.85;;;26.10;;
32108;SDS011;18624;50.042;8.436;2023-02-15T13:34:20;45.58;;;25.67;;
32108;SDS011;18624;50.042;8.436;2023-02-15T13:36:59;45.03;;;26.27;;
32108;SDS011;18624;50.042;8.436;2023-02-15T13:39:40;46.72;;;24.92;;
32108;SDS011;18624;50.042;8.436;2023-02-15T13:42:14;52.63;;;28.55;;
32108;SDS011;18624;50.042;8.436;2023-02-15T13:44:54;46.53;;;27.70;;
32108;SDS011;18624;50.042;8.436;2023-02-15T13:50:31;43.60;;;26.05;;
32108;SDS011;18624;50.042;8.436;2023-02-15T14:08:19;57.38;;;33.17;;
32108;SDS011;18624;50.042;8.436;2023-02-15T14:14:00;67.10;;;35.40;;
32108;SDS011;18624;50.042;8.436;2023-02-15T14:19:43;74.35;;;39.80;;
32108;SDS011;18624;50.042;8.436;2023-02-15T14:25:23;73.82;;;38.10;;
32108;SDS011;18624;50.042;8.436;2023-02-15T14:30:38;68.28;;;39.03;;
32108;SDS011;18624;50.042;8.436;2023-02-15T14:33:08;71.28;;;35.97;;
32108;SDS011;18624;50.042;8.436;2023-02-15T14:35:35;68.40;;;37.97;;
32108;SDS011;18624;50.042;8.436;2023-02-15T14:48:49;66.65;;;36.58;;
32108;SDS011;18624;50.042;8.436;2023-02-15T14:52:04;69.32;;;37.90;;
32108;SDS011;18624;50.042;8.436;2023-02-15T14:54:05;62.00;;;33.85;;
32108;SDS011;18624;50.042;8.436;2023-02-15T14:56:33;63.00;;;33.70;;
32108;SDS011;18624;50.042;8.436;2023-02-15T14:59:13;60.80;;;34.63;;
32108;SDS011;18624;50.042;8.436;2023-02-15T15:07:43;59.83;;;34.38;;
32108;SDS011;18624;50.042;8.436;2023-02-15T15:12:45;55.63;;;32.28;;
32108;SDS011;18624;50.042;8.436;2023-02-15T15:17:58;60.05;;;35.72;;
32108;SDS011;18624;50.042;8.436;2023-02-15T15:25:45;51.58;;;32.20;;
32108;SDS011;18624;50.042;8.436;2023-02-15T15:32:00;59.78;;;34.75;;
32108;SDS011;18624;50.042;8.436;2023-02-15T15:42:32;53.53;;;30.45;;
32108;SDS011;18624;50.042;8.436;2023-02-15T15:45:40;49.38;;;31.17;;
32108;SDS011;18624;50.042;8.436;2023-02-15T15:51:04;51.87;;;31.90;;
32108;SDS011;18624;50.042;8.436;2023-02-15T15:53:38;48.08;;;30.25;;
32108;SDS011;18624;50.042;8.436;2023-02-15T15:56:11;50.22;;;32.17;;
32108;SDS011;18624;50.042;8.436;2023-02-15T15:58:42;48.90;;;30.17;;
32108;SDS011;18624;50.042;8.436;2023-02-15T16:01:16;44.30;;;27.80;;
32108;SDS011;18624;50.042;8.436;2023-02-15T16:03:52;52.70;;;31.13;;
32108;SDS011;18624;50.042;8.436;2023-02-15T16:09:09;48.63;;;28.90;;
32108;SDS011;18624;50.042;8.436;2023-02-15T16:11:56;50.65;;;31.13;;
32108;SDS011;18624;50.042;8.436;2023-02-15T16:14:37;47.50;;;30.30;;
32108;SDS011;18624;50.042;8.436;2023-02-15T16:17:06;46.13;;;28.23;;
32108;SDS011;18624;50.042;8.436;2023-02-15T16:19:39;49.40;;;27.70;;
32108;SDS011;18624;50.042;8.436;2023-02-15T16:22:18;51.50;;;28.92;;
32108;SDS011;18624;50.042;8.436;2023-02-15T16:25:07;43.80;;;27.00;;
32108;SDS011;18624;50.042;8.436;2023-02-15T16:27:43;53.28;;;29.40;;
32108;SDS011;18624;50.042;8.436;2023-02-15T16:32:43;44.70;;;27.52;;
32108;SDS011;18624;50.042;8.436;2023-02-15T16:35:13;39.65;;;26.08;;
32108;SDS011;18624;50.042;8.436;2023-02-15T16:37:41;43.08;;;26.58;;
32108;SDS011;18624;50.042;8.436;2023-02-15T16:42:50;50.47;;;29.73;;
32108;SDS011;18624;50.042;8.436;2023-02-15T16:45:19;40.03;;;26.60;;
32108;SDS011;18624;50.042;8.436;2023-02-15T16:47:49;37.63;;;25.42;;
32108;SDS011;18624;50.042;8.436;2023-02-15T16:50:40;40.58;;;25.35;;
32108;SDS011;18624;50.042;8.436;2023-02-15T16:53:06;40.22;;;25.10;;
32108;SDS011;18624;50.042;8.436;2023-02-15T16:55:41;39.20;;;25.08;;
32108;SDS011;18624;50.042;8.436;2023-02-15T16:58:12;41.30;;;26.08;;
32108;SDS011;18624;50.042;8.436;2023-02-15T17:00:41;38.75;;;25.45;;
32108;SDS011;18624;50.042;8.436;2023-02-15T17:18:29;41.83;;;25.73;;
32108;SDS011;18624;50.042;8.436;2023-02-15T17:20:59;45.08;;;29.75;;
32108;SDS011;18624;50.042;8.436;2023-02-15T17:23:36;41.67;;;26.85;;
32108;SDS011;18624;50.042;8.436;2023-02-15T17:26:11;38.75;;;26.38;;
32108;SDS011;18624;50.042;8.436;2023-02-15T17:28:49;40.95;;;29.13;;
32108;SDS011;18624;50.042;8.436;2023-02-15T17:31:19;39.55;;;28.02;;
32108;SDS011;18624;50.042;8.436;2023-02-15T17:33:47;43.65;;;27.90;;
32108;SDS011;18624;50.042;8.436;2023-02-15T17:36:18;41.78;;;27.27;;
32108;SDS011;18624;50.042;8.436;2023-02-15T17:41:27;46.00;;;29.50;;
32108;SDS011;18624;50.042;8.436;2023-02-15T17:44:00;45.65;;;29.23;;
32108;SDS011;18624;50.042;8.436;2023-02-15T17:46:29;46.50;;;29.20;;
32108;SDS011;18624;50.042;8.436;2023-02-15T17:49:00;47.75;;;30.10;;
32108;SDS011;18624;50.042;8.436;2023-02-15T17:51:27;49.83;;;29.95;;
32108;SDS011;18624;50.042;8.436;2023-02-15T17:53:54;47.10;;;29.50;;
32108;SDS011;18624;50.042;8.436;2023-02-15T17:56:39;69.60;;;37.58;;
32108;SDS011;18624;50.042;8.436;2023-02-15T17:59:06;41.97;;;28.73;;
32108;SDS011;18624;50.042;8.436;2023-02-15T18:01:33;47.33;;;32.58;;
32108;SDS011;18624;50.042;8.436;2023-02-15T18:04:19;51.97;;;33.38;;
32108;SDS011;18624;50.042;8.436;2023-02-15T18:07:07;45.20;;;28.65;;
32108;SDS011;18624;50.042;8.436;2023-02-15T18:09:53;45.72;;;29.75;;
32108;SDS011;18624;50.042;8.436;2023-02-15T18:12:38;45.60;;;29.60;;
32108;SDS011;18624;50.042;8.436;2023-02-15T18:15:06;47.47;;;31.70;;
32108;SDS011;18624;50.042;8.436;2023-02-15T18:17:38;45.10;;;29.90;;
32108;SDS011;18624;50.042;8.436;2023-02-15T18:22:43;42.63;;;27.00;;
32108;SDS011;18624;50.042;8.436;2023-02-15T18:25:15;43.38;;;27.50;;
32108;SDS011;18624;50.042;8.436;2023-02-15T18:27:43;55.60;;;33.23;;